createdAt,value
2022-10-20T00:05:33.442Z,67.53
2022-10-20T00:12:35.636Z,67.70
2022-10-20T00:19:37.461Z,68.42
2022-10-20T00:26:39.011Z,68.45
2022-10-20T00:33:40.587Z,68.94
2022-10-20T00:40:42.160Z,69.32
2022-10-20T00:47:48.831Z,69.67
2022-10-20T00:54:50.402Z,69.30
2022-10-20T01:01:52.052Z,69.73
2022-10-20T01:08:54.068Z,69.96
2022-10-20T01:16:14.516Z,70.31
2022-10-20T01:23:45.204Z,70.69
2022-10-20T01:30:48.191Z,70.89
2022-10-20T01:38:36.850Z,70.99
2022-10-20T01:45:39.597Z,71.21
2022-10-20T01:52:41.132Z,71.22
2022-10-20T01:59:45.318Z,71.45
2022-10-20T02:06:49.851Z,71.36
2022-10-20T02:13:51.731Z,71.47
2022-10-20T02:20:54.751Z,71.84
2022-10-20T02:27:56.440Z,71.99
2022-10-20T02:34:58.038Z,72.22
2022-10-20T02:41:59.597Z,71.98
2022-10-20T02:49:01.154Z,72.22
2022-10-20T02:56:02.806Z,72.47
2022-10-20T03:03:04.378Z,72.91
2022-10-20T03:10:06.452Z,72.90
2022-10-20T03:17:08.341Z,73.12
2022-10-20T03:24:09.892Z,73.78
2022-10-20T03:31:11.529Z,73.71
2022-10-20T03:38:13.096Z,73.93
2022-10-20T03:45:17.778Z,73.95
2022-10-20T03:52:20.282Z,74.14
2022-10-20T03:59:23.524Z,74.23
2022-10-20T04:06:27.156Z,74.47
2022-10-20T04:13:28.707Z,74.39
2022-10-20T04:20:30.247Z,74.46
2022-10-20T04:27:31.780Z,74.62
2022-10-20T04:34:33.349Z,74.88
2022-10-20T04:41:35.026Z,74.99
2022-10-20T04:48:37.664Z,75.29
2022-10-20T04:55:39.202Z,75.32
2022-10-20T05:02:40.780Z,75.58
2022-10-20T05:09:42.347Z,75.44
2022-10-20T05:16:43.891Z,75.89
2022-10-20T05:23:45.479Z,76.16
2022-10-20T05:30:47.229Z,76.36
2022-10-20T05:37:48.767Z,76.65
2022-10-20T05:44:50.335Z,76.84
2022-10-20T05:51:51.911Z,77.17
2022-10-20T05:58:53.745Z,77.46
2022-10-20T06:05:59.185Z,77.97
2022-10-20T06:13:00.725Z,77.97
2022-10-20T06:20:02.349Z,78.43
2022-10-20T06:27:04.015Z,78.17
2022-10-20T06:34:12.513Z,77.94
2022-10-20T06:41:15.599Z,78.29
2022-10-20T06:48:17.200Z,78.13
2022-10-20T06:55:18.839Z,77.15
2022-10-20T07:02:21.803Z,76.67
2022-10-20T07:09:23.344Z,75.30
2022-10-20T07:16:25.832Z,73.53
2022-10-20T07:23:28.020Z,72.34
2022-10-20T07:30:29.566Z,71.49
2022-10-20T07:37:31.164Z,70.35
2022-10-20T07:44:32.764Z,69.65
2022-10-20T07:51:34.655Z,68.08
2022-10-20T07:58:36.491Z,67.30
2022-10-20T08:05:38.071Z,65.37
2022-10-20T08:12:39.714Z,65.51
2022-10-20T08:19:45.450Z,63.75
2022-10-20T08:26:47.044Z,62.59
2022-10-20T08:33:52.268Z,59.27
2022-10-20T08:40:54.388Z,59.29
2022-10-20T08:47:57.430Z,58.29
2022-10-20T08:54:58.990Z,56.32
2022-10-20T09:02:00.652Z,54.35
2022-10-20T09:09:02.312Z,54.57
2022-10-20T09:16:08.220Z,52.95
2022-10-20T09:23:39.953Z,51.76
2022-10-20T09:30:41.932Z,51.88
2022-10-20T09:37:44.163Z,50.96
2022-10-20T09:44:52.174Z,51.18
2022-10-20T09:51:54.041Z,50.91
2022-10-20T09:58:56.368Z,50.71
2022-10-20T10:06:19.967Z,49.51
2022-10-20T10:13:25.128Z,47.93
2022-10-20T10:20:49.470Z,46.70
2022-10-20T10:28:06.922Z,45.15
2022-10-20T10:35:19.822Z,42.91
2022-10-20T10:42:33.196Z,41.09
2022-10-20T10:50:28.977Z,41.09
2022-10-20T10:57:51.661Z,41.17
2022-10-20T11:05:20.787Z,40.51
2022-10-20T11:12:37.525Z,39.80
2022-10-20T11:20:01.863Z,38.65
2022-10-20T11:27:14.289Z,37.61
2022-10-20T11:34:21.239Z,35.43
2022-10-20T11:41:24.947Z,35.20
2022-10-20T11:48:30.593Z,34.63
2022-10-20T11:55:44.085Z,36.06
2022-10-20T12:02:58.604Z,37.55
2022-10-20T12:10:28.976Z,39.89
2022-10-20T12:17:34.483Z,41.33
2022-10-20T12:24:54.404Z,42.17
2022-10-20T12:32:33.717Z,42.75
2022-10-20T12:39:35.446Z,43.20
2022-10-20T12:46:40.636Z,43.82
2022-10-20T12:53:42.201Z,43.31
2022-10-20T13:00:46.579Z,43.11
2022-10-20T13:07:48.183Z,42.81
2022-10-20T13:14:55.480Z,43.16
2022-10-20T13:21:57.051Z,43.79
2022-10-20T13:29:00.215Z,43.98
2022-10-20T13:36:32.628Z,44.98
2022-10-20T13:43:36.874Z,45.16
2022-10-20T13:50:43.323Z,45.66
2022-10-20T13:57:55.430Z,45.87
2022-10-20T14:05:06.908Z,45.92
2022-10-20T14:12:11.884Z,46.27
2022-10-20T14:19:13.588Z,46.66
2022-10-20T14:26:19.947Z,46.90
2022-10-20T14:33:21.506Z,47.01
2022-10-20T14:40:25.573Z,45.77
2022-10-20T14:47:39.354Z,45.01
2022-10-20T14:54:41.310Z,44.79
2022-10-20T15:02:13.212Z,44.92
2022-10-20T15:09:26.707Z,44.97
2022-10-20T15:16:54.783Z,45.84
2022-10-20T15:23:56.407Z,46.49
2022-10-20T15:31:01.222Z,47.81
2022-10-20T15:38:02.998Z,48.36
2022-10-20T15:45:20.512Z,49.34
2022-10-20T15:52:22.177Z,50.27
2022-10-20T15:59:24.019Z,51.34
2022-10-20T16:06:25.660Z,52.05
2022-10-20T16:13:27.503Z,53.15
2022-10-20T16:20:29.119Z,54.21
2022-10-20T16:27:31.191Z,55.12
2022-10-20T16:34:32.918Z,56.06
2022-10-20T16:41:34.592Z,57.53
2022-10-20T16:48:37.845Z,57.64
2022-10-20T16:55:39.701Z,58.78
2022-10-20T17:02:43.983Z,59.27
2022-10-20T17:09:45.602Z,60.46
2022-10-20T17:16:47.329Z,61.14
2022-10-20T17:23:48.914Z,61.27
2022-10-20T17:30:52.946Z,63.01
2022-10-20T17:37:54.549Z,62.78
2022-10-20T17:44:56.122Z,63.10
2022-10-20T17:51:57.708Z,63.66
2022-10-20T17:58:59.902Z,64.42
2022-10-20T18:06:11.859Z,64.35
2022-10-20T18:13:13.482Z,64.34
2022-10-20T18:20:15.107Z,64.71
2022-10-20T18:27:16.662Z,65.22
2022-10-20T18:34:20.516Z,65.91
2022-10-20T18:41:30.141Z,65.68
2022-10-20T18:48:31.894Z,66.37
2022-10-20T18:55:33.471Z,66.57
2022-10-20T19:02:35.490Z,66.85
2022-10-20T19:09:37.128Z,66.78
2022-10-20T19:16:39.296Z,66.76
2022-10-20T19:23:45.907Z,66.80
2022-10-20T19:30:47.489Z,66.76
2022-10-20T19:37:49.072Z,66.76
2022-10-20T19:44:50.803Z,67.06
2022-10-20T19:51:52.583Z,66.75
2022-10-20T19:58:54.324Z,66.70
2022-10-20T20:06:03.366Z,66.26
2022-10-20T20:13:05.107Z,66.65
2022-10-20T20:20:07.240Z,66.75
2022-10-20T20:27:09.000Z,66.99
2022-10-20T20:34:10.631Z,66.72
2022-10-20T20:41:14.160Z,67.03
2022-10-20T20:48:15.811Z,67.03
2022-10-20T20:55:17.454Z,66.76
2022-10-20T21:02:19.049Z,67.47
2022-10-20T21:09:20.703Z,67.05
2022-10-20T21:16:25.674Z,67.58
2022-10-20T21:23:27.247Z,67.83
2022-10-20T21:30:28.867Z,67.92
2022-10-20T21:37:30.462Z,67.71
2022-10-20T21:44:32.015Z,67.98
2022-10-20T21:51:35.231Z,67.66
2022-10-20T21:58:37.261Z,67.73
2022-10-20T22:05:38.808Z,67.21
2022-10-20T22:12:40.413Z,67.42
2022-10-20T22:19:41.995Z,66.97
2022-10-20T22:26:43.562Z,67.03
2022-10-20T22:33:45.142Z,67.82
2022-10-20T22:40:46.691Z,69.25
2022-10-20T22:47:48.257Z,70.91
2022-10-20T22:54:49.820Z,72.06
2022-10-20T23:01:51.467Z,73.39
2022-10-20T23:08:54.086Z,74.64
2022-10-20T23:15:55.679Z,76.17
2022-10-20T23:22:57.230Z,77.27
2022-10-20T23:29:58.975Z,77.97
2022-10-20T23:37:00.555Z,78.45
2022-10-20T23:44:02.127Z,79.31
2022-10-20T23:51:04.353Z,79.60
2022-10-20T23:58:05.899Z,80.84
